createdAt,value
2022-10-08T00:01:26.632Z,6.80
2022-10-08T00:03:57.422Z,7.67
2022-10-08T00:06:26.857Z,6.33
2022-10-08T00:08:56.165Z,6.37
2022-10-08T00:11:25.892Z,6.53
2022-10-08T00:13:55.066Z,7.57
2022-10-08T00:16:25.343Z,7.60
2022-10-08T00:18:56.794Z,8.00
2022-10-08T00:21:27.997Z,9.43
2022-10-08T00:23:56.454Z,8.07
2022-10-08T00:26:26.622Z,8.00
2022-10-08T00:28:56.093Z,9.40
2022-10-08T00:31:26.493Z,7.47
2022-10-08T00:33:57.874Z,8.40
2022-10-08T00:36:27.177Z,7.53
2022-10-08T00:38:57.918Z,7.97
2022-10-08T00:41:29.681Z,8.83
2022-10-08T00:44:00.014Z,9.53
2022-10-08T00:46:30.378Z,9.73
2022-10-08T00:49:03.871Z,9.50
2022-10-08T00:51:33.089Z,10.23
2022-10-08T00:54:02.130Z,10.43
2022-10-08T00:56:31.933Z,9.07
2022-10-08T00:59:00.037Z,9.00
2022-10-08T01:01:29.491Z,9.63
2022-10-08T01:03:57.799Z,8.10
2022-10-08T01:06:29.786Z,8.80
2022-10-08T01:09:04.099Z,9.30
2022-10-08T01:11:43.482Z,10.77
2022-10-08T01:14:23.298Z,13.53
2022-10-08T01:16:58.204Z,12.40
2022-10-08T01:19:54.754Z,10.33
2022-10-08T01:22:38.672Z,12.10
2022-10-08T01:25:34.031Z,11.07
2022-10-08T01:28:12.107Z,11.17
2022-10-08T01:30:45.351Z,12.20
2022-10-08T01:33:17.111Z,10.20
2022-10-08T01:35:50.554Z,9.40
2022-10-08T01:38:22.384Z,10.70
2022-10-08T01:40:54.656Z,9.70
2022-10-08T01:43:26.054Z,12.73
2022-10-08T01:45:58.680Z,10.70
2022-10-08T01:48:29.870Z,10.23
2022-10-08T01:51:01.808Z,9.77
2022-10-08T01:53:37.780Z,9.70
2022-10-08T01:56:08.618Z,8.63
2022-10-08T01:58:47.296Z,8.77
2022-10-08T02:01:30.510Z,10.13
2022-10-08T02:04:12.460Z,9.33
2022-10-08T02:06:45.013Z,8.90
2022-10-08T02:09:12.839Z,10.73
2022-10-08T02:11:40.582Z,9.13
2022-10-08T02:14:09.714Z,10.87
2022-10-08T02:16:44.687Z,11.53
2022-10-08T02:19:20.718Z,10.90
2022-10-08T02:21:52.548Z,9.07
2022-10-08T02:24:24.860Z,10.87
2022-10-08T02:26:57.763Z,9.30
2022-10-08T02:29:32.760Z,8.03
2022-10-08T02:32:07.787Z,8.83
2022-10-08T02:34:40.596Z,9.47
2022-10-08T02:37:15.525Z,8.37
2022-10-08T02:39:47.696Z,8.30
2022-10-08T02:42:19.733Z,10.20
2022-10-08T02:44:51.276Z,9.83
2022-10-08T02:47:22.789Z,10.03
2022-10-08T02:49:54.308Z,9.63
2022-10-08T02:52:24.561Z,10.63
2022-10-08T02:54:53.577Z,8.70
2022-10-08T02:57:27.436Z,8.17
2022-10-08T02:59:56.913Z,9.80
2022-10-08T03:02:33.023Z,8.40
2022-10-08T03:05:05.978Z,9.13
2022-10-08T03:07:35.482Z,10.13
2022-10-08T03:10:06.422Z,10.10
2022-10-08T03:12:35.295Z,10.83
2022-10-08T03:15:05.228Z,9.60
2022-10-08T03:17:37.010Z,9.93
2022-10-08T03:20:07.472Z,10.43
2022-10-08T03:22:36.030Z,11.00
2022-10-08T03:25:03.816Z,10.23
2022-10-08T03:27:31.597Z,9.67
2022-10-08T03:29:59.317Z,10.90
2022-10-08T03:32:28.552Z,9.27
2022-10-08T03:34:56.265Z,8.67
2022-10-08T03:37:24.024Z,8.87
2022-10-08T03:39:51.752Z,8.67
2022-10-08T03:42:19.551Z,8.97
2022-10-08T03:44:47.305Z,10.60
2022-10-08T03:47:15.023Z,8.50
2022-10-08T03:49:44.104Z,8.80
2022-10-08T03:52:11.849Z,9.70
2022-10-08T03:54:39.631Z,9.27
2022-10-08T03:57:07.345Z,12.50
2022-10-08T03:59:35.097Z,10.50
2022-10-08T04:02:02.847Z,11.07
2022-10-08T04:04:30.574Z,11.70
2022-10-08T04:06:59.645Z,10.20
2022-10-08T04:09:27.425Z,12.00
2022-10-08T04:11:55.163Z,9.87
2022-10-08T04:14:22.945Z,10.50
2022-10-08T04:16:50.744Z,12.63
2022-10-08T04:19:18.485Z,11.23
2022-10-08T04:21:46.252Z,13.40
2022-10-08T04:24:15.368Z,10.93
2022-10-08T04:26:43.112Z,10.93
2022-10-08T04:29:12.458Z,9.47
2022-10-08T04:31:40.447Z,11.40
2022-10-08T04:34:08.238Z,10.57
2022-10-08T04:36:35.964Z,9.53
2022-10-08T04:39:03.789Z,10.37
2022-10-08T04:41:33.028Z,9.27
2022-10-08T04:44:01.565Z,10.20
2022-10-08T04:46:29.400Z,9.97
2022-10-08T04:48:58.197Z,9.17
2022-10-08T04:51:27.642Z,9.87
2022-10-08T04:53:56.632Z,9.10
2022-10-08T04:56:26.424Z,7.90
2022-10-08T04:58:55.940Z,8.27
2022-10-08T05:01:24.900Z,10.03
2022-10-08T05:03:55.154Z,8.17
2022-10-08T05:06:25.348Z,8.37
2022-10-08T05:08:53.139Z,10.10
2022-10-08T05:11:24.019Z,8.40
2022-10-08T05:13:52.910Z,9.23
2022-10-08T05:16:22.761Z,10.47
2022-10-08T05:18:51.970Z,9.60
2022-10-08T05:21:22.306Z,9.83
2022-10-08T05:23:55.105Z,9.13
2022-10-08T05:26:41.491Z,9.97
2022-10-08T05:29:12.901Z,10.70
2022-10-08T05:31:41.976Z,11.13
2022-10-08T05:34:09.837Z,11.27
2022-10-08T05:36:37.553Z,11.00
2022-10-08T05:39:06.209Z,9.80
2022-10-08T05:41:36.698Z,11.63
2022-10-08T05:44:05.648Z,10.77
2022-10-08T05:46:35.969Z,12.63
2022-10-08T05:49:06.985Z,11.40
2022-10-08T05:51:35.334Z,9.83
2022-10-08T05:54:03.102Z,10.27
2022-10-08T05:56:31.570Z,10.93
2022-10-08T05:58:59.352Z,11.13
2022-10-08T06:01:28.888Z,11.17
2022-10-08T06:03:58.736Z,11.30
2022-10-08T06:06:28.222Z,9.80
2022-10-08T06:08:58.498Z,10.03
2022-10-08T06:11:26.885Z,9.93
2022-10-08T06:13:55.449Z,9.27
2022-10-08T06:16:23.876Z,9.90
2022-10-08T06:18:52.040Z,11.10
2022-10-08T06:21:21.778Z,10.23
2022-10-08T06:23:52.901Z,10.47
2022-10-08T06:26:22.055Z,10.10
2022-10-08T06:28:50.369Z,10.13
2022-10-08T06:31:18.679Z,11.33
2022-10-08T06:33:46.928Z,10.60
2022-10-08T06:36:16.814Z,9.93
2022-10-08T06:38:44.919Z,8.10
2022-10-08T06:41:14.030Z,10.17
2022-10-08T06:43:41.747Z,11.53
2022-10-08T06:46:09.505Z,8.67
2022-10-08T06:48:37.303Z,8.93
2022-10-08T06:51:06.548Z,10.83
2022-10-08T06:53:34.845Z,10.83
2022-10-08T06:56:04.076Z,9.10
2022-10-08T06:58:35.194Z,9.70
2022-10-08T07:01:04.870Z,10.77
2022-10-08T07:03:32.778Z,8.77
2022-10-08T07:06:01.781Z,8.87
2022-10-08T07:08:30.223Z,9.73
2022-10-08T07:11:05.314Z,10.17
2022-10-08T07:13:34.698Z,9.03
2022-10-08T07:16:04.238Z,9.53
2022-10-08T07:18:32.441Z,9.80
2022-10-08T07:21:00.452Z,9.33
2022-10-08T07:23:28.300Z,8.63
2022-10-08T07:25:57.992Z,8.10
2022-10-08T07:28:26.641Z,8.77
2022-10-08T07:30:55.793Z,8.33
2022-10-08T07:33:23.599Z,8.07
2022-10-08T07:35:51.346Z,8.20
2022-10-08T07:38:19.596Z,7.63
2022-10-08T07:40:48.571Z,7.50
2022-10-08T07:43:19.625Z,8.63
2022-10-08T07:45:47.595Z,8.23
2022-10-08T07:48:18.892Z,8.13
2022-10-08T07:50:46.688Z,7.77
2022-10-08T07:53:14.424Z,7.03
2022-10-08T07:55:42.156Z,7.47
2022-10-08T07:58:09.876Z,6.70
2022-10-08T08:00:39.679Z,6.43
2022-10-08T08:03:07.703Z,6.90
2022-10-08T08:05:36.969Z,6.50
2022-10-08T08:08:04.728Z,9.10
2022-10-08T08:10:32.492Z,7.27
2022-10-08T08:13:00.235Z,7.00
2022-10-08T08:15:28.001Z,6.43
2022-10-08T08:17:55.845Z,6.97
2022-10-08T08:20:23.630Z,7.93
2022-10-08T08:22:52.724Z,6.80
2022-10-08T08:25:20.449Z,6.50
2022-10-08T08:27:48.201Z,6.97
2022-10-08T08:30:16.099Z,6.40
2022-10-08T08:32:43.847Z,8.93
2022-10-08T08:35:11.604Z,7.37
2022-10-08T08:37:39.428Z,7.90
2022-10-08T08:40:10.399Z,6.77
2022-10-08T08:42:50.042Z,7.37
2022-10-08T08:45:45.389Z,5.80
2022-10-08T08:48:23.782Z,5.60
2022-10-08T08:50:54.469Z,4.80
2022-10-08T08:53:23.236Z,4.30
2022-10-08T08:55:55.509Z,4.80
2022-10-08T08:58:34.869Z,4.10
2022-10-08T09:01:11.382Z,6.03
2022-10-08T09:03:43.639Z,5.67
2022-10-08T09:06:15.417Z,5.37
2022-10-08T09:08:45.963Z,4.40
2022-10-08T09:11:16.741Z,5.30
2022-10-08T09:13:50.860Z,4.17
2022-10-08T09:16:19.484Z,3.80
2022-10-08T09:18:49.451Z,4.00
2022-10-08T09:21:17.639Z,3.97
2022-10-08T09:23:46.202Z,4.67
2022-10-08T09:26:20.205Z,4.20
2022-10-08T09:28:49.986Z,4.13
2022-10-08T09:31:27.261Z,4.20
2022-10-08T09:34:06.859Z,4.23
2022-10-08T09:36:37.881Z,3.43
2022-10-08T09:39:15.610Z,3.53
2022-10-08T09:41:45.508Z,3.03
2022-10-08T09:44:16.905Z,3.50
2022-10-08T09:46:45.444Z,2.90
2022-10-08T09:49:31.950Z,3.00
2022-10-08T09:52:04.822Z,3.17
2022-10-08T09:54:36.974Z,3.00
2022-10-08T09:57:07.636Z,3.10
2022-10-08T09:59:42.318Z,2.50
2022-10-08T10:02:29.025Z,2.83
2022-10-08T10:04:57.817Z,2.60
2022-10-08T10:07:36.209Z,2.57
2022-10-08T10:10:05.457Z,2.20
2022-10-08T10:12:37.682Z,1.90
2022-10-08T10:15:14.561Z,1.70
2022-10-08T10:17:48.784Z,1.60
2022-10-08T10:20:21.587Z,2.03
2022-10-08T10:22:55.400Z,1.60
2022-10-08T10:25:31.934Z,1.80
2022-10-08T10:28:05.086Z,1.17
2022-10-08T10:30:43.335Z,1.40
2022-10-08T10:33:15.257Z,1.30
2022-10-08T10:35:48.516Z,1.10
2022-10-08T10:38:23.842Z,1.60
2022-10-08T10:41:02.087Z,2.00
2022-10-08T10:43:44.334Z,1.57
2022-10-08T10:46:25.526Z,1.93
2022-10-08T10:48:53.313Z,1.23
2022-10-08T10:51:51.802Z,2.00
2022-10-08T10:54:38.118Z,1.37
2022-10-08T10:57:11.745Z,1.57
2022-10-08T10:59:47.790Z,1.80
2022-10-08T11:02:23.983Z,1.70
2022-10-08T11:05:02.173Z,1.90
2022-10-08T11:08:06.632Z,1.60
2022-10-08T11:10:48.578Z,1.93
2022-10-08T11:13:29.605Z,1.57
2022-10-08T11:16:08.722Z,1.40
2022-10-08T11:18:47.153Z,1.20
2022-10-08T11:21:28.326Z,1.27
2022-10-08T11:24:10.706Z,1.10
2022-10-08T11:26:43.472Z,1.50
2022-10-08T11:29:17.753Z,1.00
2022-10-08T11:31:48.199Z,0.93
2022-10-08T11:34:23.101Z,0.90
2022-10-08T11:37:00.285Z,1.20
2022-10-08T11:39:36.573Z,0.77
2022-10-08T11:42:13.735Z,1.07
2022-10-08T11:44:41.751Z,0.80
2022-10-08T11:47:47.670Z,1.03
2022-10-08T11:50:25.485Z,1.07
2022-10-08T11:52:54.391Z,0.93
2022-10-08T11:55:26.229Z,0.80
2022-10-08T11:58:08.162Z,1.10
2022-10-08T12:00:41.380Z,0.90
2022-10-08T12:03:24.143Z,1.17
2022-10-08T12:05:54.126Z,0.87
2022-10-08T12:08:52.673Z,1.00
2022-10-08T12:11:52.207Z,0.80
2022-10-08T12:14:33.798Z,1.03
2022-10-08T12:17:11.656Z,0.93
2022-10-08T12:20:18.053Z,0.90
2022-10-08T12:23:00.918Z,1.00
2022-10-08T12:25:38.411Z,0.90
2022-10-08T12:28:39.715Z,1.10
2022-10-08T12:31:26.906Z,1.10
2022-10-08T12:34:04.258Z,0.90
2022-10-08T12:36:52.277Z,1.07
2022-10-08T12:39:29.848Z,0.97
2022-10-08T12:42:08.556Z,1.20
2022-10-08T12:44:51.550Z,1.00
2022-10-08T12:47:28.984Z,0.70
2022-10-08T12:50:01.217Z,0.90
2022-10-08T12:52:34.967Z,0.93
2022-10-08T12:55:04.860Z,1.10
2022-10-08T12:57:36.473Z,0.80
2022-10-08T13:00:09.860Z,0.70
2022-10-08T13:02:39.128Z,0.83
2022-10-08T13:05:22.761Z,0.77
2022-10-08T13:07:51.905Z,0.70
2022-10-08T13:10:21.697Z,0.97
2022-10-08T13:13:03.431Z,0.70
2022-10-08T13:15:33.298Z,0.63
2022-10-08T13:18:01.420Z,0.63
2022-10-08T13:20:29.189Z,0.50
2022-10-08T13:22:58.397Z,0.80
2022-10-08T13:25:36.992Z,0.70
2022-10-08T13:28:14.408Z,0.80
2022-10-08T13:30:44.518Z,0.83
2022-10-08T13:33:17.212Z,0.70
2022-10-08T13:35:50.949Z,0.80
2022-10-08T13:38:22.841Z,1.00
2022-10-08T13:40:53.968Z,0.90
2022-10-08T13:43:22.577Z,0.80
2022-10-08T13:45:50.354Z,0.83
2022-10-08T13:48:18.277Z,0.77
2022-10-08T13:50:46.962Z,0.77
2022-10-08T13:53:17.758Z,0.90
2022-10-08T13:55:48.744Z,0.83
2022-10-08T13:58:18.539Z,0.90
2022-10-08T14:00:47.631Z,0.90
2022-10-08T14:03:15.885Z,0.90
2022-10-08T14:05:45.690Z,0.83
2022-10-08T14:08:17.693Z,1.20
2022-10-08T14:10:47.002Z,1.20
2022-10-08T14:13:16.285Z,1.10
2022-10-08T14:15:44.129Z,1.20
2022-10-08T14:18:11.845Z,1.10
2022-10-08T14:20:39.649Z,1.07
2022-10-08T14:23:07.769Z,1.00
2022-10-08T14:25:35.512Z,1.13
2022-10-08T14:28:04.604Z,1.70
2022-10-08T14:30:32.418Z,1.20
2022-10-08T14:33:00.182Z,0.93
2022-10-08T14:35:28.009Z,0.93
2022-10-08T14:37:55.749Z,0.80
2022-10-08T14:40:24.065Z,1.07
2022-10-08T14:42:52.164Z,0.90
2022-10-08T14:45:22.933Z,0.70
2022-10-08T14:47:50.782Z,0.90
2022-10-08T14:50:18.605Z,0.60
2022-10-08T14:52:47.182Z,1.03
2022-10-08T14:55:15.144Z,1.10
2022-10-08T14:57:42.923Z,1.40
2022-10-08T15:00:13.016Z,1.20
2022-10-08T15:02:42.120Z,0.90
2022-10-08T15:05:10.206Z,1.00
2022-10-08T15:07:37.948Z,0.90
2022-10-08T15:10:06.409Z,0.83
2022-10-08T15:12:34.293Z,0.90
2022-10-08T15:15:02.179Z,0.77
2022-10-08T15:17:30.071Z,0.70
2022-10-08T15:19:59.504Z,0.70
2022-10-08T15:22:27.235Z,1.80
2022-10-08T15:24:55.005Z,0.70
2022-10-08T15:27:22.792Z,0.90
2022-10-08T15:29:50.554Z,0.53
2022-10-08T15:32:18.321Z,1.00
2022-10-08T15:34:46.094Z,0.80
2022-10-08T15:37:15.515Z,0.60
2022-10-08T15:39:43.408Z,0.60
2022-10-08T15:42:12.809Z,0.53
2022-10-08T15:44:43.399Z,0.73
2022-10-08T15:47:12.043Z,1.00
2022-10-08T15:49:41.618Z,0.70
2022-10-08T15:52:11.565Z,0.70
2022-10-08T15:54:42.161Z,0.80
2022-10-08T15:57:12.408Z,1.00
2022-10-08T15:59:40.196Z,0.70
2022-10-08T16:02:12.838Z,0.70
2022-10-08T16:04:43.730Z,0.73
2022-10-08T16:07:11.499Z,0.63
2022-10-08T16:09:40.615Z,0.83
2022-10-08T16:12:08.517Z,0.80
2022-10-08T16:14:36.445Z,0.90
2022-10-08T16:17:04.281Z,1.40
2022-10-08T16:19:32.077Z,1.10
2022-10-08T16:22:01.052Z,0.90
2022-10-08T16:24:29.017Z,1.00
2022-10-08T16:26:58.213Z,0.90
2022-10-08T16:29:25.932Z,1.10
2022-10-08T16:31:53.657Z,1.10
2022-10-08T16:34:22.831Z,1.10
2022-10-08T16:36:51.224Z,1.37
2022-10-08T16:39:21.447Z,1.00
2022-10-08T16:41:49.710Z,1.00
2022-10-08T16:44:20.519Z,1.10
2022-10-08T16:46:50.644Z,1.00
2022-10-08T16:49:24.546Z,1.30
2022-10-08T16:51:53.625Z,1.10
2022-10-08T16:54:21.455Z,1.20
2022-10-08T16:56:49.237Z,0.90
2022-10-08T16:59:21.021Z,1.13
2022-10-08T17:01:50.890Z,1.30
2022-10-08T17:04:19.929Z,1.10
2022-10-08T17:06:48.096Z,1.37
2022-10-08T17:09:15.916Z,1.43
2022-10-08T17:11:43.700Z,1.70
2022-10-08T17:14:12.471Z,1.77
2022-10-08T17:16:43.057Z,1.40
2022-10-08T17:19:10.921Z,1.70
2022-10-08T17:21:39.067Z,1.80
2022-10-08T17:24:07.100Z,1.90
2022-10-08T17:26:35.089Z,1.70
2022-10-08T17:29:08.445Z,2.00
2022-10-08T17:31:36.293Z,2.27
2022-10-08T17:34:06.303Z,3.17
2022-10-08T17:36:35.976Z,3.73
2022-10-08T17:39:05.956Z,4.93
2022-10-08T17:41:35.808Z,7.63
2022-10-08T17:44:05.640Z,8.20
2022-10-08T17:46:35.116Z,7.53
2022-10-08T17:49:03.162Z,6.37
2022-10-08T17:51:33.113Z,6.60
2022-10-08T17:54:02.416Z,5.60
2022-10-08T17:56:30.722Z,4.57
2022-10-08T17:58:58.902Z,4.07
2022-10-08T18:01:28.516Z,3.40
2022-10-08T18:03:58.771Z,3.87
2022-10-08T18:06:27.334Z,4.80
2022-10-08T18:08:57.841Z,10.33
2022-10-08T18:11:27.060Z,12.60
2022-10-08T18:13:55.038Z,13.50
2022-10-08T18:16:23.340Z,11.80
2022-10-08T18:18:51.068Z,9.87
2022-10-08T18:21:20.424Z,9.90
2022-10-08T18:23:48.970Z,8.23
2022-10-08T18:26:20.138Z,6.10
2022-10-08T18:28:50.341Z,5.23
2022-10-08T18:31:19.682Z,4.47
2022-10-08T18:33:49.641Z,4.47
2022-10-08T18:36:19.147Z,3.40
2022-10-08T18:38:48.775Z,3.07
2022-10-08T18:41:19.532Z,3.33
2022-10-08T18:43:48.917Z,2.83
2022-10-08T18:46:18.564Z,3.03
2022-10-08T18:48:46.600Z,3.10
2022-10-08T18:51:17.066Z,2.57
2022-10-08T18:53:46.153Z,2.30
2022-10-08T18:56:16.957Z,2.80
2022-10-08T18:58:46.813Z,2.70
2022-10-08T19:01:19.790Z,2.27
2022-10-08T19:03:49.130Z,2.10
2022-10-08T19:06:17.706Z,2.50
2022-10-08T19:08:45.597Z,2.47
2022-10-08T19:11:15.179Z,2.73
2022-10-08T19:13:44.122Z,2.90
2022-10-08T19:16:15.006Z,2.80
2022-10-08T19:18:43.756Z,2.90
2022-10-08T19:21:13.030Z,3.10
2022-10-08T19:23:41.272Z,2.90
2022-10-08T19:26:09.191Z,2.43
2022-10-08T19:28:37.989Z,2.43
2022-10-08T19:31:14.844Z,2.90
2022-10-08T19:33:42.657Z,2.70
2022-10-08T19:36:10.748Z,3.30
2022-10-08T19:38:38.501Z,3.80
2022-10-08T19:41:10.606Z,4.17
2022-10-08T19:43:38.714Z,3.40
2022-10-08T19:46:06.980Z,2.80
2022-10-08T19:48:36.123Z,2.77
2022-10-08T19:51:05.561Z,3.60
2022-10-08T19:53:33.844Z,3.50
2022-10-08T19:56:03.340Z,4.80
2022-10-08T19:58:31.086Z,4.43
2022-10-08T20:00:59.704Z,3.47
2022-10-08T20:03:27.656Z,3.20
2022-10-08T20:05:56.760Z,2.97
2022-10-08T20:08:24.524Z,2.90
2022-10-08T20:10:52.273Z,2.80
2022-10-08T20:13:20.004Z,2.67
2022-10-08T20:15:51.127Z,2.63
2022-10-08T20:18:19.339Z,2.43
2022-10-08T20:20:47.113Z,3.03
2022-10-08T20:23:16.255Z,2.73
2022-10-08T20:25:44.909Z,2.97
2022-10-08T20:28:12.682Z,2.77
2022-10-08T20:30:42.696Z,2.80
2022-10-08T20:33:10.440Z,2.40
2022-10-08T20:35:38.196Z,2.47
2022-10-08T20:38:05.920Z,2.60
2022-10-08T20:40:35.059Z,2.67
2022-10-08T20:43:02.780Z,3.37
2022-10-08T20:45:30.535Z,3.63
2022-10-08T20:47:58.278Z,3.90
2022-10-08T20:50:26.004Z,4.13
2022-10-08T20:52:53.756Z,4.57
2022-10-08T20:55:21.483Z,4.80
2022-10-08T20:57:50.558Z,3.43
2022-10-08T21:00:18.338Z,3.37
2022-10-08T21:02:46.130Z,3.60
2022-10-08T21:05:14.353Z,3.43
2022-10-08T21:07:42.063Z,3.60
2022-10-08T21:10:10.803Z,4.30
2022-10-08T21:12:38.533Z,4.90
2022-10-08T21:15:09.584Z,4.70
2022-10-08T21:17:37.497Z,4.67
2022-10-08T21:20:05.701Z,5.07
2022-10-08T21:22:33.416Z,5.40
2022-10-08T21:25:01.307Z,5.17
2022-10-08T21:27:29.040Z,4.90
2022-10-08T21:29:56.798Z,4.70
2022-10-08T21:32:25.868Z,4.47
2022-10-08T21:34:53.601Z,4.90
2022-10-08T21:37:21.349Z,4.60
2022-10-08T21:39:49.077Z,4.60
2022-10-08T21:42:16.809Z,4.47
2022-10-08T21:44:44.555Z,4.30
2022-10-08T21:47:12.288Z,4.70
2022-10-08T21:49:41.364Z,3.83
2022-10-08T21:52:09.113Z,3.60
2022-10-08T21:54:36.906Z,3.33
2022-10-08T21:57:04.841Z,3.70
2022-10-08T21:59:32.612Z,4.60
2022-10-08T22:02:00.371Z,5.30
2022-10-08T22:04:28.690Z,5.60
2022-10-08T22:06:59.421Z,5.40
2022-10-08T22:09:29.032Z,5.57
2022-10-08T22:11:57.946Z,5.60
2022-10-08T22:14:26.121Z,6.30
2022-10-08T22:16:54.042Z,4.77
2022-10-08T22:19:21.869Z,4.77
2022-10-08T22:21:49.627Z,4.73
2022-10-08T22:24:18.787Z,4.77
2022-10-08T22:26:48.448Z,4.80
2022-10-08T22:29:16.861Z,4.87
2022-10-08T22:31:44.976Z,5.33
2022-10-08T22:34:12.990Z,5.80
2022-10-08T22:36:42.823Z,5.17
2022-10-08T22:39:10.887Z,5.93
2022-10-08T22:41:40.262Z,5.63
2022-10-08T22:44:07.988Z,5.53
2022-10-08T22:46:38.109Z,5.20
2022-10-08T22:49:08.558Z,4.90
2022-10-08T22:51:37.272Z,5.60
2022-10-08T22:54:05.383Z,6.13
2022-10-08T22:56:33.291Z,5.90
2022-10-08T22:59:02.411Z,5.80
2022-10-08T23:01:31.092Z,6.67
2022-10-08T23:03:59.050Z,5.67
2022-10-08T23:06:28.413Z,6.17
2022-10-08T23:08:58.453Z,6.67
2022-10-08T23:11:26.979Z,6.20
2022-10-08T23:13:56.398Z,5.77
2022-10-08T23:16:27.478Z,6.83
2022-10-08T23:18:57.525Z,6.77
2022-10-08T23:21:26.141Z,5.90
2022-10-08T23:23:54.624Z,6.00
2022-10-08T23:26:23.441Z,5.27
2022-10-08T23:28:52.446Z,6.00
2022-10-08T23:31:22.174Z,5.73
2022-10-08T23:33:52.852Z,4.87
2022-10-08T23:36:22.019Z,5.23
2022-10-08T23:38:50.314Z,5.97
2022-10-08T23:41:18.551Z,4.87
2022-10-08T23:43:47.573Z,6.17
2022-10-08T23:46:17.088Z,5.50
2022-10-08T23:48:45.227Z,5.17
2022-10-08T23:51:15.737Z,4.87
2022-10-08T23:53:44.453Z,5.50
2022-10-08T23:56:13.613Z,4.53
2022-10-08T23:58:41.858Z,4.20
